Time;durP1;ratioP1;P1;durP2;ratioP2;P2;SDS_P1;SDS_P2;PMS_P1;PMS_P2;Temp;Humidity;BMP_temperature;BMP_pressure;BME280_temperature;BME280_humidity;BME280_pressure;Samples;Min_cycle;Max_cycle;Signal;HPM_P1;HPM_P2
2022/01/03 00:01:49;;;;;;;1.93;1.40;;;;;;;10.35;54.71;97545.91;6234646;28;20729;-73
2022/01/03 00:04:52;;;;;;;2.53;1.73;;;;;;;10.33;53.96;97539.91;6229715;28;20783;-73
2022/01/03 00:07:54;;;;;;;3.77;1.57;;;;;;;10.23;55.01;97539.00;6237427;28;20224;-74
2022/01/03 00:10:57;;;;;;;2.03;1.60;;;;;;;10.32;54.62;97538.22;6254241;28;20480;-73
2022/01/03 00:13:59;;;;;;;3.37;1.40;;;;;;;10.10;56.06;97539.09;6253016;28;20695;-73
2022/01/03 00:17:02;;;;;;;2.53;1.33;;;;;;;9.84;56.73;97532.44;6238008;28;20708;-73
2022/01/03 00:20:05;;;;;;;2.27;1.50;;;;;;;9.57;57.50;97525.78;6253877;28;20232;-73
2022/01/03 00:23:10;;;;;;;2.30;1.60;;;;;;;9.32;59.48;97530.44;6255184;28;20695;-73
2022/01/03 00:26:15;;;;;;;3.20;1.30;;;;;;;9.11;59.75;97525.03;6253826;28;20638;-73
2022/01/03 00:29:22;;;;;;;2.03;1.47;;;;;;;9.08;59.58;97517.38;6251560;28;20714;-73
2022/01/03 00:32:28;;;;;;;2.23;1.60;;;;;;;9.46;57.89;97532.84;6252422;28;20241;-72
2022/01/03 00:35:35;;;;;;;2.73;1.57;;;;;;;9.45;58.59;97518.84;6252001;28;20647;-73
2022/01/03 00:38:37;;;;;;;2.17;1.50;;;;;;;9.44;57.30;97511.03;6252166;28;20603;-72
2022/01/03 00:41:42;;;;;;;3.30;1.87;;;;;;;9.49;57.49;97512.34;6251949;28;20657;-73
2022/01/03 00:44:46;;;;;;;2.20;1.40;;;;;;;9.42;58.43;97531.41;6252007;28;20983;-72
2022/01/03 00:47:48;;;;;;;2.77;1.40;;;;;;;9.47;57.75;97542.44;6228848;28;20598;-73
2022/01/03 00:50:50;;;;;;;3.07;1.67;;;;;;;9.84;56.58;97537.72;6248911;28;20604;-73
2022/01/03 00:53:52;;;;;;;2.67;1.63;;;;;;;9.73;57.27;97537.72;6241893;28;20234;-73
2022/01/03 00:57:01;;;;;;;2.13;1.80;;;;;;;9.68;57.25;97526.72;6241385;28;20725;-73
2022/01/03 01:00:09;;;;;;;2.97;1.60;;;;;;;9.55;58.26;97529.50;6254255;28;20265;-72
2022/01/03 01:03:27;;;;;;;2.70;1.47;;;;;;;9.84;56.46;97522.75;6251303;28;20210;-73
2022/01/03 01:06:33;;;;;;;3.87;1.70;;;;;;;9.88;56.49;97533.91;6253057;28;20251;-73
2022/01/03 01:09:37;;;;;;;3.30;1.73;;;;;;;9.94;55.31;97539.50;6251471;28;20710;-72
2022/01/03 01:12:43;;;;;;;3.30;1.53;;;;;;;9.82;56.56;97537.84;6252654;28;20703;-73
2022/01/03 01:15:45;;;;;;;3.13;1.80;;;;;;;9.72;56.80;97529.00;6246283;28;20491;-72
2022/01/03 01:18:49;;;;;;;2.43;1.70;;;;;;;9.70;56.88;97536.16;6251549;28;20239;-73
2022/01/03 01:21:52;;;;;;;6.37;1.40;;;;;;;9.58;57.11;97529.25;6251164;28;20246;-73
2022/01/03 01:25:22;;;;;;;1.03;0.93;;;;;;;9.67;56.73;97522.41;6252602;28;20235;-73
2022/01/03 01:28:21;;;;;;;5.17;1.80;;;;;;;9.89;55.59;97533.75;6251151;28;20322;-73
2022/01/03 01:31:24;;;;;;;2.43;1.70;;;;;;;10.00;55.25;97528.47;6251937;28;20599;-73
2022/01/03 01:34:29;;;;;;;3.53;1.80;;;;;;;10.17;54.23;97516.56;6250552;28;20238;-72
2022/01/03 01:37:34;;;;;;;1.70;1.30;;;;;;;10.18;54.05;97514.81;6251573;28;20223;-73
2022/01/03 01:40:47;;;;;;;3.87;1.50;;;;;;;10.19;54.66;97517.28;6253564;28;20231;-73
2022/01/03 01:43:49;;;;;;;1.53;1.30;;;;;;;10.18;55.16;97509.53;6253515;28;20724;-73
2022/01/03 01:46:56;;;;;;;2.20;1.60;;;;;;;9.98;56.52;97505.84;6235502;28;20691;-73
2022/01/03 01:50:01;;;;;;;1.83;1.63;;;;;;;9.96;55.61;97511.22;6226947;28;20283;-73
2022/01/03 01:53:05;;;;;;;3.87;1.93;;;;;;;9.97;55.14;97497.09;6253262;28;20232;-73
2022/01/03 01:56:39;;;;;;;3.20;1.70;;;;;;;10.06;54.67;97489.38;6252811;28;20232;-72
2022/01/03 02:00:05;;;;;;;4.00;1.57;;;;;;;10.03;55.60;97481.72;6255907;28;20285;-72
2022/01/03 02:03:51;;;;;;;2.33;1.43;;;;;;;9.99;55.78;97483.75;6255429;28;20568;-73
2022/01/03 02:06:56;;;;;;;2.93;1.50;;;;;;;10.14;55.05;97471.13;6255590;28;20235;-73
2022/01/03 02:10:09;;;;;;;1.83;1.40;;;;;;;10.38;54.13;97487.63;6257422;28;20703;-73
2022/01/03 02:13:19;;;;;;;4.93;1.60;;;;;;;10.20;55.34;97468.03;6256625;28;20228;-73
2022/01/03 02:16:22;;;;;;;1.67;1.20;;;;;;;10.22;54.57;97468.75;6228458;28;20224;-73
2022/01/03 02:19:27;;;;;;;1.47;1.37;;;;;;;10.25;53.85;97476.41;6246092;28;20656;-72
2022/01/03 02:22:30;;;;;;;5.67;2.00;;;;;;;10.21;54.65;97457.34;6254567;28;20303;-73
2022/01/03 02:25:33;;;;;;;3.83;1.57;;;;;;;10.15;54.83;97462.28;6254792;28;20595;-73
2022/01/03 02:28:35;;;;;;;2.50;1.50;;;;;;;10.02;55.34;97462.44;6239429;28;20237;-73
2022/01/03 02:31:38;;;;;;;2.07;1.33;;;;;;;10.22;53.68;97451.13;6254937;28;20243;-73
2022/01/03 02:34:42;;;;;;;4.40;1.93;;;;;;;10.34;52.99;97473.00;6254941;28;20228;-73
2022/01/03 02:37:46;;;;;;;4.43;1.80;;;;;;;10.43;53.41;97455.56;6255025;28;20235;-74
2022/01/03 02:40:50;;;;;;;2.50;1.27;;;;;;;10.34;54.92;97479.13;6255109;28;20244;-72
2022/01/03 02:43:53;;;;;;;3.37;1.67;;;;;;;10.42;53.19;97451.25;6254576;28;20248;-72
2022/01/03 02:46:55;;;;;;;2.57;1.80;;;;;;;10.34;53.91;97436.91;6238192;28;20229;-73
2022/01/03 02:49:57;;;;;;;3.07;1.70;;;;;;;10.43;53.57;97448.50;6241537;28;20286;-73
2022/01/03 02:53:00;;;;;;;2.00;1.53;;;;;;;10.44;53.56;97460.72;6252766;28;20235;-73
2022/01/03 02:56:03;;;;;;;3.73;1.70;;;;;;;10.32;53.96;97432.72;6230625;28;20229;-74
2022/01/03 02:59:13;;;;;;;2.57;1.47;;;;;;;10.29;54.32;97444.34;6234367;28;20309;-74
2022/01/03 03:02:20;;;;;;;3.43;1.57;;;;;;;10.08;55.05;97447.94;6237017;28;20228;-73
2022/01/03 03:05:23;;;;;;;3.00;1.53;;;;;;;9.94;55.42;97444.59;6238450;28;20229;-73
2022/01/03 03:08:26;;;;;;;2.27;1.60;;;;;;;9.87;55.34;97451.34;6236173;28;20224;-74
2022/01/03 03:11:27;;;;;;;3.93;1.50;;;;;;;10.06;54.55;97448.03;6245542;28;20247;-73
2022/01/03 03:14:29;;;;;;;3.40;1.73;;;;;;;9.92;55.15;97453.59;6255595;28;20600;-74
2022/01/03 03:17:33;;;;;;;1.73;1.50;;;;;;;9.72;56.03;97465.75;6245912;28;20242;-71
2022/01/03 03:20:37;;;;;;;2.03;1.30;;;;;;;9.92;56.14;97470.25;6237437;28;20227;-73
2022/01/03 03:23:39;;;;;;;3.97;1.63;;;;;;;9.88;56.26;97466.16;6254682;28;20581;-73
2022/01/03 03:26:41;;;;;;;2.53;1.37;;;;;;;9.83;55.89;97447.28;6253952;28;20227;-72
2022/01/03 03:29:48;;;;;;;2.97;1.70;;;;;;;9.71;56.63;97453.53;6254704;28;20281;-73
2022/01/03 03:32:53;;;;;;;9.20;1.70;;;;;;;9.54;57.55;97462.78;6254499;28;20318;-73
2022/01/03 03:35:57;;;;;;;4.53;1.50;;;;;;;9.58;56.84;97445.75;6253364;28;20703;-72
2022/01/03 03:39:00;;;;;;;2.73;1.50;;;;;;;9.48;58.05;97449.28;6254810;28;20771;-71
2022/01/03 03:42:05;;;;;;;4.27;1.90;;;;;;;9.46;57.47;97449.41;6253736;28;20233;-73
2022/01/03 03:45:07;;;;;;;2.17;1.50;;;;;;;9.39;57.99;97456.09;6253110;28;20219;-72
2022/01/03 03:48:10;;;;;;;2.00;1.50;;;;;;;9.51;57.57;97464.81;6239186;28;20310;-73
2022/01/03 03:51:12;;;;;;;1.67;1.40;;;;;;;9.48;58.34;97458.00;6253123;28;20294;-73
2022/01/03 03:54:15;;;;;;;3.70;1.60;;;;;;;9.37;58.72;97465.09;6240444;28;20684;-73
2022/01/03 03:57:17;;;;;;;1.60;1.40;;;;;;;9.18;58.92;97469.13;6229053;28;20268;-73
2022/01/03 04:00:19;;;;;;;2.83;1.50;;;;;;;9.01;60.40;97492.47;6253315;28;20625;-73
2022/01/03 04:03:27;;;;;;;3.93;1.70;;;;;;;9.06;59.92;97471.91;6254991;28;20227;-73
2022/01/03 04:06:30;;;;;;;2.23;1.50;;;;;;;9.30;59.27;97477.88;6252530;28;20218;-73
2022/01/03 04:09:34;;;;;;;1.63;1.43;;;;;;;9.25;58.70;97475.63;6252594;28;20230;-73
2022/01/03 04:12:37;;;;;;;1.63;1.40;;;;;;;9.26;59.15;97471.19;6252960;28;20301;-73
2022/01/03 04:15:39;;;;;;;1.40;1.30;;;;;;;9.12;59.00;97484.59;6246921;28;20220;-73
2022/01/03 04:18:41;;;;;;;2.37;1.80;;;;;;;9.04;60.59;97473.81;6234249;28;20226;-73
2022/01/03 04:21:43;;;;;;;2.53;1.60;;;;;;;9.15;59.79;97471.19;6253009;28;20772;-74
2022/01/03 04:24:45;;;;;;;1.37;1.10;;;;;;;9.17;59.88;97456.13;6253630;28;20607;-73
2022/01/03 04:27:48;;;;;;;1.67;1.10;;;;;;;9.36;59.57;97453.72;6252121;28;20232;-72
2022/01/03 04:30:53;;;;;;;4.00;1.30;;;;;;;9.45;60.31;97442.44;6254822;28;20304;-73
2022/01/03 04:33:56;;;;;;;2.87;1.67;;;;;;;9.41;59.85;97479.66;6254587;28;20232;-73
2022/01/03 04:36:58;;;;;;;3.37;1.47;;;;;;;9.31;60.71;97468.19;6252128;28;20769;-73
2022/01/03 04:40:01;;;;;;;2.33;0.93;;;;;;;9.22;61.57;97461.84;6253009;28;20726;-74
2022/01/03 04:43:04;;;;;;;3.03;1.30;;;;;;;9.41;61.23;97472.59;6252475;28;20587;-73
2022/01/03 04:46:10;;;;;;;3.47;1.37;;;;;;;9.49;60.49;97453.56;6247599;28;20280;-73
2022/01/03 04:49:13;;;;;;;2.47;1.00;;;;;;;9.61;60.24;97448.16;6231008;28;20715;-73
2022/01/03 04:52:15;;;;;;;2.30;1.13;;;;;;;9.73;60.87;97450.78;6227938;28;20234;-72
2022/01/03 04:55:17;;;;;;;1.87;1.20;;;;;;;9.80;60.28;97444.03;6228277;28;20238;-73
2022/01/03 04:58:19;;;;;;;5.23;1.20;;;;;;;10.01;59.06;97463.38;6229020;28;20243;-73
2022/01/03 05:01:23;;;;;;;3.80;1.20;;;;;;;10.02;59.35;97449.25;6230590;28;20350;-73
2022/01/03 05:04:25;;;;;;;2.00;0.90;;;;;;;10.18;57.83;97435.69;6256799;28;20289;-70
2022/01/03 05:07:27;;;;;;;2.30;1.00;;;;;;;10.12;58.39;97446.69;6254281;28;20235;-71
2022/01/03 05:10:31;;;;;;;2.73;1.00;;;;;;;10.21;57.73;97435.41;6253271;28;20228;-73
2022/01/03 05:13:33;;;;;;;2.53;0.97;;;;;;;10.31;57.53;97446.88;6252597;28;20227;-73
2022/01/03 05:16:34;;;;;;;1.83;0.83;;;;;;;10.20;57.89;97460.94;6239131;28;20228;-72
2022/01/03 05:19:37;;;;;;;3.57;1.53;;;;;;;10.49;56.70;97449.78;6202111;28;20548;-73
2022/01/03 05:22:39;;;;;;;1.50;1.00;;;;;;;10.45;56.65;97443.09;6246119;28;20232;-73
2022/01/03 05:25:42;;;;;;;2.40;0.90;;;;;;;10.65;55.98;97448.38;6251131;28;20699;-73
2022/01/03 05:28:47;;;;;;;1.30;0.83;;;;;;;10.47;57.13;97439.38;6251621;28;20235;-74
2022/01/03 05:31:50;;;;;;;2.00;0.87;;;;;;;10.43;56.88;97453.78;6251237;28;20313;-72
2022/01/03 05:34:52;;;;;;;1.97;0.70;;;;;;;10.48;56.55;97463.97;6252932;28;20227;-74
2022/01/03 05:37:55;;;;;;;2.40;0.97;;;;;;;10.57;56.05;97457.91;6251203;28;20223;-72
2022/01/03 05:40:58;;;;;;;3.20;0.80;;;;;;;10.61;56.12;97470.72;6251854;28;20571;-74
2022/01/03 05:44:00;;;;;;;1.30;0.60;;;;;;;10.82;55.00;97462.78;6252083;28;20227;-73
2022/01/03 05:47:02;;;;;;;2.93;0.80;;;;;;;10.81;55.26;97460.28;6236862;28;20873;-73
2022/01/03 05:50:06;;;;;;;2.60;1.30;;;;;;;10.69;55.51;97438.38;6227709;28;20236;-73
2022/01/03 05:53:08;;;;;;;2.37;0.73;;;;;;;10.58;55.70;97454.31;6240278;28;20236;-73
2022/01/03 05:56:10;;;;;;;2.00;0.93;;;;;;;10.75;55.67;97466.91;6239016;28;20236;-73
2022/01/03 05:59:12;;;;;;;2.33;1.20;;;;;;;10.86;54.34;97501.16;6252217;28;20596;-74
2022/01/03 06:02:15;;;;;;;3.03;1.10;;;;;;;10.96;53.98;97470.38;6252977;28;20235;-73
2022/01/03 06:05:30;;;;;;;1.43;0.80;;;;;;;10.80;54.64;97467.34;6249854;28;20229;-74
2022/01/03 06:08:32;;;;;;;2.50;1.10;;;;;;;10.79;54.82;97489.44;6252710;28;20718;-74
2022/01/03 06:11:36;;;;;;;2.03;0.87;;;;;;;10.77;54.58;97478.19;6250936;28;20627;-74
2022/01/03 06:14:38;;;;;;;2.87;0.80;;;;;;;10.68;54.90;97492.97;6250671;28;20238;-73
2022/01/03 06:17:42;;;;;;;3.30;0.73;;;;;;;10.51;56.12;97500.63;6246541;28;20601;-74
2022/01/03 06:20:48;;;;;;;4.73;1.00;;;;;;;10.47;56.06;97472.84;6250102;28;20238;-74
2022/01/03 06:23:53;;;;;;;4.00;0.87;;;;;;;10.64;55.29;97488.09;6249983;28;20223;-73
2022/01/03 06:26:55;;;;;;;3.30;0.93;;;;;;;10.67;55.60;97472.00;6251307;28;20227;-74
2022/01/03 06:29:56;;;;;;;2.87;1.10;;;;;;;10.65;55.88;97487.13;6252723;28;20610;-74
2022/01/03 06:32:59;;;;;;;3.07;1.10;;;;;;;10.49;56.24;97469.09;6251365;28;20220;-74
2022/01/03 06:36:01;;;;;;;3.27;0.83;;;;;;;10.56;55.33;97487.91;6233054;28;20733;-72
2022/01/03 06:39:05;;;;;;;3.30;1.27;;;;;;;10.65;55.35;97479.22;6256366;28;20232;-73
2022/01/03 06:42:07;;;;;;;1.93;0.70;;;;;;;10.56;55.60;97493.19;6254481;28;20216;-73
2022/01/03 06:45:09;;;;;;;2.87;0.80;;;;;;;10.41;56.02;97497.91;6254131;28;20224;-73
2022/01/03 06:48:11;;;;;;;3.00;1.13;;;;;;;10.59;55.86;97550.97;6233275;28;20232;-73
2022/01/03 06:51:13;;;;;;;3.20;1.30;;;;;;;10.81;55.16;97495.44;6230820;28;20228;-73
2022/01/03 06:54:16;;;;;;;1.13;0.73;;;;;;;10.76;55.38;97492.34;6230788;28;20220;-73
2022/01/03 06:57:24;;;;;;;3.00;0.90;;;;;;;10.65;55.71;97498.53;6235568;28;20292;-73
2022/01/03 07:00:26;;;;;;;1.73;0.80;;;;;;;10.65;55.65;97505.59;6254846;28;20234;-73
2022/01/03 07:03:29;;;;;;;4.60;1.10;;;;;;;10.53;56.34;97533.00;6258699;28;20245;-73
2022/01/03 07:06:32;;;;;;;3.67;0.90;;;;;;;10.69;55.36;97538.69;6260269;28;20223;-73
2022/01/03 07:09:34;;;;;;;2.83;0.90;;;;;;;10.59;56.54;97499.00;6255676;28;20234;-73
2022/01/03 07:12:36;;;;;;;3.37;1.30;;;;;;;10.61;56.07;97534.03;6258360;28;20224;-72
2022/01/03 07:19:03;;;;;;;2.70;0.80;;;;;;;10.50;56.43;97557.84;6243957;28;20239;-74
2022/01/03 07:22:07;;;;;;;1.93;0.70;;;;;;;10.40;56.78;97545.50;6256665;28;20236;-74
2022/01/03 07:25:09;;;;;;;3.40;1.47;;;;;;;10.30;57.24;97555.97;6253811;28;20228;-73
2022/01/03 07:28:13;;;;;;;4.67;1.10;;;;;;;10.48;56.94;97557.13;6236336;28;20231;-73
2022/01/03 07:31:15;;;;;;;3.30;1.10;;;;;;;10.55;56.39;97570.66;6253590;28;20230;-73
2022/01/03 07:34:17;;;;;;;2.33;1.00;;;;;;;10.49;57.29;97558.78;6255443;28;20239;-74
2022/01/03 07:37:19;;;;;;;3.00;1.03;;;;;;;10.49;57.44;97574.63;6255554;28;20234;-73
2022/01/03 07:40:21;;;;;;;2.13;0.97;;;;;;;10.47;57.29;97576.56;6254435;28;20727;-73
2022/01/03 07:43:23;;;;;;;2.37;1.33;;;;;;;10.42;58.33;97589.28;6255130;28;20243;-71
2022/01/03 07:46:25;;;;;;;2.13;1.20;;;;;;;10.29;58.05;97586.78;6243770;28;20240;-71
2022/01/03 07:49:28;;;;;;;3.10;1.40;;;;;;;10.20;58.91;97594.59;6228790;28;20240;-74
2022/01/03 07:52:29;;;;;;;3.27;1.07;;;;;;;10.05;59.37;97587.91;6233266;28;20242;-73
2022/01/03 07:55:31;;;;;;;2.20;0.97;;;;;;;9.99;59.64;97581.31;6230190;28;20282;-73
2022/01/03 07:58:33;;;;;;;2.80;1.17;;;;;;;9.89;60.08;97575.09;6230393;28;20228;-74
2022/01/03 08:01:35;;;;;;;1.70;1.00;;;;;;;9.80;60.32;97579.28;6253015;28;20242;-73
2022/01/03 08:04:38;;;;;;;2.63;1.27;;;;;;;9.78;61.43;97573.28;6241041;28;20224;-74
2022/01/03 08:07:42;;;;;;;2.63;1.00;;;;;;;9.71;61.08;97585.28;6228869;28;20707;-73
2022/01/03 08:10:45;;;;;;;3.23;1.20;;;;;;;9.67;61.47;97588.28;6229360;28;20712;-73
2022/01/03 08:13:47;;;;;;;2.17;1.40;;;;;;;9.58;62.30;97571.41;6222111;28;20769;-73
2022/01/03 08:16:49;;;;;;;2.63;0.90;;;;;;;9.56;61.95;97566.25;6226780;28;20761;-71
2022/01/03 08:19:51;;;;;;;3.33;1.43;;;;;;;9.49;62.72;97567.66;6252339;28;20228;-71
2022/01/03 08:22:53;;;;;;;4.43;1.03;;;;;;;9.47;62.25;97560.88;6252153;28;20722;-71
2022/01/03 08:25:55;;;;;;;2.60;1.17;;;;;;;9.45;63.31;97573.31;6254567;28;20226;-72
2022/01/03 08:28:57;;;;;;;1.17;1.07;;;;;;;9.37;62.85;97576.53;6253389;28;20626;-71
2022/01/03 08:31:58;;;;;;;4.40;1.30;;;;;;;9.33;63.17;97576.88;6235046;28;20238;-69
2022/01/03 08:35:00;;;;;;;5.60;1.33;;;;;;;9.41;63.12;97598.19;6229859;28;20690;-68
2022/01/03 08:38:04;;;;;;;2.33;1.00;;;;;;;9.51;62.10;97605.28;6238385;28;20231;-69
2022/01/03 08:41:06;;;;;;;2.83;1.23;;;;;;;9.64;62.17;97605.16;6253555;28;20231;-70
2022/01/03 08:44:09;;;;;;;2.43;1.17;;;;;;;9.73;61.71;97604.44;6252160;28;20707;-71
2022/01/03 08:47:11;;;;;;;3.00;1.10;;;;;;;9.75;61.43;97613.09;6235585;28;20220;-68
2022/01/03 08:50:15;;;;;;;3.63;1.00;;;;;;;9.80;61.41;97599.53;6229765;28;20231;-68
2022/01/03 08:53:18;;;;;;;2.00;1.20;;;;;;;9.80;61.58;97581.09;6246620;28;20364;-68
2022/01/03 08:56:20;;;;;;;3.93;1.40;;;;;;;9.81;61.09;97586.25;6230042;28;20592;-68
2022/01/03 08:59:22;;;;;;;2.33;1.33;;;;;;;9.96;60.62;97594.75;6243676;28;20722;-74
2022/01/03 09:02:23;;;;;;;2.43;1.10;;;;;;;10.10;60.98;97601.53;6252745;28;20223;-72
2022/01/03 09:05:25;;;;;;;3.00;1.30;;;;;;;10.24;60.74;97583.69;6250584;28;20237;-73
2022/01/03 09:08:27;;;;;;;2.40;1.20;;;;;;;10.37;59.65;97588.00;6252244;28;20752;-72
2022/01/03 09:11:29;;;;;;;1.90;1.07;;;;;;;10.33;60.61;97582.13;6250658;28;20243;-73
2022/01/03 09:14:31;;;;;;;4.10;1.23;;;;;;;10.37;60.56;97582.72;6252362;28;20715;-72
2022/01/03 09:17:34;;;;;;;2.70;1.10;;;;;;;10.42;60.21;97586.66;6231846;28;20239;-71
2022/01/03 09:20:36;;;;;;;2.03;1.10;;;;;;;10.60;59.52;97586.94;6250787;28;20317;-72
2022/01/03 09:23:43;;;;;;;2.53;1.13;;;;;;;10.71;59.81;97573.69;6252564;28;20225;-72
2022/01/03 09:30:06;;;;;;;2.53;1.10;;;;;;;10.82;59.17;97572.81;6238542;28;20224;-73
2022/01/03 09:33:08;;;;;;;4.53;1.33;;;;;;;10.88;58.80;97575.78;6231742;28;20743;-71
2022/01/03 09:36:10;;;;;;;2.57;0.90;;;;;;;10.86;59.34;97553.97;6252215;28;20219;-73
2022/01/03 09:39:12;;;;;;;2.67;1.10;;;;;;;11.02;58.84;97558.78;6237975;28;20704;-72
2022/01/03 09:42:23;;;;;;;4.30;1.30;;;;;;;11.27;57.95;97545.19;6252123;28;20208;-71
2022/01/03 09:45:27;;;;;;;2.50;1.20;;;;;;;11.55;56.28;97538.38;6250003;28;20233;-72
2022/01/03 09:48:30;;;;;;;2.57;1.27;;;;;;;11.67;56.24;97539.13;6236046;28;20276;-72
2022/01/03 09:51:33;;;;;;;2.83;0.80;;;;;;;11.69;56.56;97524.78;6227605;28;20316;-72
2022/01/03 09:54:36;;;;;;;2.47;0.97;;;;;;;11.80;56.31;97522.06;6229771;28;20234;-72
2022/01/03 09:57:39;;;;;;;1.70;0.90;;;;;;;11.84;55.89;97546.44;6227200;28;20229;-71
2022/01/03 10:00:41;;;;;;;3.03;1.17;;;;;;;11.66;55.63;97540.94;6239613;28;20236;-71
2022/01/03 10:03:47;;;;;;;1.93;1.00;;;;;;;11.63;56.15;97543.84;6250993;28;20228;-72
2022/01/03 10:06:50;;;;;;;2.47;1.30;;;;;;;11.58;55.94;97538.09;6250642;28;20244;-71
2022/01/03 10:09:54;;;;;;;2.63;1.03;;;;;;;11.76;56.35;97565.63;6251895;28;20228;-73
2022/01/03 10:12:56;;;;;;;3.30;1.10;;;;;;;11.63;55.75;97545.63;6254237;28;20238;-72
2022/01/03 10:15:58;;;;;;;2.73;1.00;;;;;;;11.76;56.00;97536.56;6248547;28;20291;-72
2022/01/03 10:19:01;;;;;;;4.07;1.10;;;;;;;11.81;55.82;97531.69;6253005;28;20237;-72
2022/01/03 10:22:05;;;;;;;2.63;0.90;;;;;;;11.73;56.15;97528.84;6256269;28;20601;-72
2022/01/03 10:25:21;;;;;;;1.67;0.80;;;;;;;11.82;55.43;97511.38;6256104;28;20236;-72
2022/01/03 10:28:26;;;;;;;2.30;0.80;;;;;;;11.85;55.69;97516.41;6259787;28;20314;-72
2022/01/03 10:31:28;;;;;;;2.43;0.70;;;;;;;11.80;55.99;97508.00;6254386;28;20228;-72
2022/01/03 10:34:32;;;;;;;1.23;0.83;;;;;;;11.73;55.66;97507.69;6256293;28;20326;-72
2022/01/03 10:37:36;;;;;;;1.00;0.60;;;;;;;11.71;56.73;97503.50;6257390;28;20232;-72
2022/01/03 10:40:38;;;;;;;2.50;0.90;;;;;;;11.53;56.42;97516.53;6257044;28;20242;-72
2022/01/03 10:43:42;;;;;;;2.80;0.97;;;;;;;11.37;56.13;97510.91;6256415;28;20248;-72
2022/01/03 10:46:50;;;;;;;2.00;0.87;;;;;;;11.26;56.84;97519.75;6240006;28;20241;-71
2022/01/03 10:49:52;;;;;;;4.47;0.80;;;;;;;11.24;57.14;97512.91;6232577;28;20229;-72
2022/01/03 10:52:55;;;;;;;1.40;0.70;;;;;;;11.11;57.13;97513.13;6246113;28;20238;-72
2022/01/03 10:55:57;;;;;;;2.37;0.90;;;;;;;11.10;57.31;97514.91;6231876;28;20241;-72
2022/01/03 10:59:10;;;;;;;3.13;1.00;;;;;;;11.16;57.56;97532.06;6240934;28;20240;-72
2022/01/03 11:02:13;;;;;;;2.40;1.07;;;;;;;11.26;56.80;97521.56;6255696;28;20229;-73
2022/01/03 11:05:35;;;;;;;2.07;0.83;;;;;;;11.36;56.95;97525.91;6255682;28;20226;-72
2022/01/03 11:12:02;;;;;;;1.77;0.70;;;;;;;11.46;56.46;97547.09;6254127;28;20680;-72
2022/01/03 11:15:20;;;;;;;2.40;0.87;;;;;;;11.51;56.72;97562.53;6255460;28;20726;-72
2022/01/03 11:18:33;;;;;;;1.43;0.50;;;;;;;11.46;56.53;97565.59;6229047;28;20233;-72
2022/01/03 11:21:44;;;;;;;1.10;0.60;;;;;;;11.26;58.23;97556.72;6206269;28;20238;-73
2022/01/03 11:24:50;;;;;;;3.20;0.63;;;;;;;11.31;58.15;97548.41;6250802;28;20298;-72
2022/01/03 11:27:52;;;;;;;0.93;0.50;;;;;;;11.20;58.93;97553.75;6255131;28;20229;-72
2022/01/03 11:30:56;;;;;;;1.43;0.77;;;;;;;10.92;58.97;97552.59;6252577;28;20721;-72
2022/01/03 11:33:58;;;;;;;2.33;0.63;;;;;;;10.93;59.94;97562.22;6256700;28;20228;-72
2022/01/03 11:37:19;;;;;;;1.80;0.70;;;;;;;11.11;59.32;97558.00;6254712;28;20813;-72
2022/01/03 11:40:22;;;;;;;0.60;0.50;;;;;;;11.22;59.57;97567.69;6255642;28;20253;-72
2022/01/03 11:43:25;;;;;;;2.30;0.50;;;;;;;11.04;59.89;97563.00;6254980;28;20712;-71
2022/01/03 11:46:30;;;;;;;2.70;0.57;;;;;;;10.69;61.57;97568.53;6246031;28;20731;-73
2022/01/03 11:49:36;;;;;;;1.33;0.40;;;;;;;10.40;62.59;97562.19;6231367;28;20714;-72
2022/01/03 11:52:43;;;;;;;1.07;0.67;;;;;;;10.16;64.24;97545.69;6204226;28;20232;-71
2022/01/03 11:55:45;;;;;;;1.17;0.60;;;;;;;9.96;62.94;97540.22;6230947;28;20231;-72
2022/01/03 11:58:54;;;;;;;1.27;0.50;;;;;;;10.09;63.49;97541.84;6249242;28;20238;-72
2022/01/03 12:05:41;;;;;;;1.67;0.43;;;;;;;10.80;61.21;97535.16;6253910;28;20231;-73
2022/01/03 12:08:54;;;;;;;2.20;0.70;;;;;;;10.86;60.73;97537.28;6254546;28;20232;-73
2022/01/03 12:11:56;;;;;;;1.27;0.70;;;;;;;11.06;59.97;97532.00;6253154;28;20710;-73
2022/01/03 12:15:00;;;;;;;0.77;0.53;;;;;;;11.25;59.58;97533.09;6253976;28;20714;-72
2022/01/03 12:18:03;;;;;;;1.13;0.50;;;;;;;11.20;59.04;97519.41;6249854;28;20231;-74
2022/01/03 12:21:05;;;;;;;0.57;0.50;;;;;;;11.39;60.09;97519.50;6252667;28;20259;-73
2022/01/03 12:24:27;;;;;;;1.57;0.43;;;;;;;11.68;58.78;97498.50;6251453;28;20676;-72
2022/01/03 12:27:33;;;;;;;0.83;0.50;;;;;;;11.97;58.07;97507.38;6254013;28;20233;-73
2022/01/03 12:30:53;;;;;;;1.80;0.70;;;;;;;12.09;58.40;97508.06;6204702;28;20219;-73
2022/01/03 12:34:17;;;;;;;2.33;0.63;;;;;;;11.83;57.57;97518.34;6252469;28;20241;-72
2022/01/03 12:37:22;;;;;;;2.13;0.80;;;;;;;11.92;57.92;97488.44;6252681;28;20240;-73
2022/01/03 12:40:30;;;;;;;1.50;0.77;;;;;;;11.91;57.85;97494.69;6252927;28;20237;-72
2022/01/03 12:43:46;;;;;;;1.73;0.87;;;;;;;12.11;56.61;97506.97;6251513;28;20712;-72
2022/01/03 12:47:30;;;;;;;3.73;1.00;;;;;;;12.27;56.51;97517.03;6238102;28;20242;-72
2022/01/03 12:50:32;;;;;;;2.67;0.90;;;;;;;12.22;55.92;97529.00;6245729;28;20707;-72
2022/01/03 12:53:35;;;;;;;0.73;0.60;;;;;;;12.30;55.85;97510.63;6243135;28;20239;-72
2022/01/03 12:56:37;;;;;;;4.40;0.70;;;;;;;13.05;53.56;97500.13;6229023;28;20238;-72
2022/01/03 12:59:39;;;;;;;1.50;0.60;;;;;;;13.79;51.55;97497.50;6237619;28;20245;-73
2022/01/03 13:02:41;;;;;;;3.57;1.20;;;;;;;14.21;49.50;97491.66;6253121;28;20233;-72
2022/01/03 13:06:21;;;;;;;1.83;0.90;;;;;;;13.22;52.12;97491.47;6251898;28;20776;-72
2022/01/03 13:09:25;;;;;;;3.37;1.10;;;;;;;12.34;54.16;97509.38;6252504;28;20225;-73
2022/01/03 13:12:27;;;;;;;3.70;0.90;;;;;;;11.73;56.23;97504.22;6252903;28;20225;-71
2022/01/03 13:15:30;;;;;;;3.47;1.03;;;;;;;11.48;56.88;97502.84;6247778;28;20296;-72
2022/01/03 13:18:32;;;;;;;2.37;0.87;;;;;;;11.37;57.42;97495.88;6250198;28;20258;-71
2022/01/03 13:21:40;;;;;;;2.80;1.00;;;;;;;11.20;58.07;97490.34;6252588;28;20229;-73
2022/01/03 13:24:46;;;;;;;5.27;1.20;;;;;;;10.94;58.81;97496.06;6251445;28;20245;-72
2022/01/03 13:27:48;;;;;;;2.23;0.87;;;;;;;10.80;58.83;97500.81;6253173;28;20229;-73
2022/01/03 13:31:01;;;;;;;5.10;1.03;;;;;;;10.70;59.71;97488.41;6252361;28;20230;-72
2022/01/03 13:34:03;;;;;;;3.53;1.30;;;;;;;10.66;58.78;97491.44;6252052;28;20722;-73
2022/01/03 13:37:08;;;;;;;2.03;1.00;;;;;;;10.60;59.15;97491.94;6251145;28;20231;-72
2022/01/03 13:40:12;;;;;;;4.57;1.40;;;;;;;10.56;59.16;97493.19;6252272;28;20227;-72
2022/01/03 13:43:15;;;;;;;3.43;0.97;;;;;;;10.54;59.42;97495.94;6251305;28;20243;-72
2022/01/03 13:49:46;;;;;;;3.70;1.27;;;;;;;10.48;59.72;97506.19;6250470;28;20331;-72
2022/01/03 13:52:50;;;;;;;4.07;1.00;;;;;;;10.35;59.92;97499.25;6252061;28;20293;-73
2022/01/03 13:55:55;;;;;;;3.40;1.30;;;;;;;10.29;60.24;97501.53;6227020;28;20242;-72
2022/01/03 13:58:58;;;;;;;2.63;0.80;;;;;;;10.27;61.16;97495.59;6242465;28;20234;-73
2022/01/03 14:02:02;;;;;;;3.90;0.93;;;;;;;10.21;60.41;97491.63;6250070;28;20244;-72
2022/01/03 14:05:06;;;;;;;7.00;1.20;;;;;;;10.20;60.96;97497.03;6252714;28;20225;-72
2022/01/03 14:08:08;;;;;;;1.97;1.00;;;;;;;10.20;61.30;97505.78;6252511;28;20219;-72
2022/01/03 14:11:13;;;;;;;2.50;0.80;;;;;;;10.19;60.94;97498.81;6249953;28;20229;-72
2022/01/03 14:14:17;;;;;;;3.37;1.00;;;;;;;10.12;61.39;97497.63;6251589;28;20231;-72
2022/01/03 14:17:19;;;;;;;4.83;1.00;;;;;;;10.06;61.44;97495.50;6232222;28;20239;-72
2022/01/03 14:20:21;;;;;;;2.00;0.97;;;;;;;10.07;61.10;97512.16;6247864;28;20238;-71
2022/01/03 14:23:25;;;;;;;2.37;1.10;;;;;;;10.00;61.22;97510.00;6250616;28;20234;-73
2022/01/03 14:26:32;;;;;;;4.90;1.07;;;;;;;9.96;61.82;97520.94;6252255;28;20234;-72
2022/01/03 14:29:38;;;;;;;3.10;0.80;;;;;;;9.88;61.90;97521.53;6251290;28;20231;-72
2022/01/03 14:32:41;;;;;;;3.97;1.10;;;;;;;9.77;62.42;97507.56;6252153;28;20227;-73
2022/01/03 14:35:44;;;;;;;4.50;1.00;;;;;;;9.72;62.54;97501.78;6251342;28;20227;-73
2022/01/03 14:38:47;;;;;;;3.47;0.80;;;;;;;9.67;62.97;97507.44;6252021;28;20223;-72
2022/01/03 14:42:04;;;;;;;6.87;1.00;;;;;;;9.60;63.43;97517.63;6250941;28;20273;-72
2022/01/03 14:45:19;;;;;;;3.40;1.00;;;;;;;9.55;63.29;97518.94;6249798;28;20234;-73
2022/01/03 14:48:22;;;;;;;2.00;0.80;;;;;;;9.46;63.40;97519.69;6237431;28;20235;-72
2022/01/03 14:51:36;;;;;;;3.27;0.87;;;;;;;9.38;64.18;97511.53;6226514;28;20255;-73